Decoded Metar for KLOZ (LONDON in KY, USA) (IATA:LOZ) | Meteo·Mobile Aviation Weather
aviador You're here:

KLOZ Decoded Metar

LONDON in KY, USA
Report Time2019-01-19 02:08:00
UTC Time2019-01-19 02:45:21
Flight Rules vfr VFR
Wind080° at 04 kt
W.Decomp.*RWY 06: 3.6 kt HW 1.7 kt RCW
W.Rank080° ranks 31
Current wind is below 080° avg. (4.7)
Visibility9999 m
Phenomena:N/A
Clouds:Scattered 020 Hf
Overcast 044 Hf
Expected CloudBase > 1,200 ft AGL from Temp-Dew spread
Ceiling4,400 ft
Temp06°C (ISA -7)
Dew Point03°C (81% RH)
AAT3.1°C
QNH1019 hPa
Density Alt295 ft
Elevation1,188 ft
Report Wrong Elevation
Raw Report
KLOZ 190208Z AUTO 08004KT 10SM SCT020 OVC044 06/03 A3008 RMK AO2
T00560033=

Extra information for KLOZ:More info

Metar Taf Metar & Taf Last 4 Metars F.Rules Stats Wind Profile Meteogram Temp Stats Airport Information Weather charts Add Link Nearby VenuesMetar ALERT Operation Metar Decoded Social comments

AIRNAV info for KLOZ